createdAt,value
2017-11-06T06:53:40.915Z,41.90
2017-11-06T06:56:08.399Z,42.05
2017-11-06T06:58:35.877Z,35.83
2017-11-06T07:01:03.372Z,34.05
2017-11-06T07:03:31.612Z,31.05
2017-11-06T07:05:59.088Z,30.83
2017-11-06T07:08:26.577Z,32.15
2017-11-06T07:10:54.843Z,29.52
2017-11-06T07:13:23.113Z,29.65
2017-11-06T07:15:50.590Z,27.73
2017-11-06T07:18:18.864Z,25.83
2017-11-06T07:20:47.092Z,28.67
2017-11-06T07:23:14.639Z,29.40
2017-11-06T07:25:42.112Z,25.90
2017-11-06T07:28:09.588Z,33.88
2017-11-06T07:30:37.095Z,26.05
2017-11-06T07:33:04.560Z,31.90
2017-11-06T07:35:32.067Z,29.85
2017-11-06T07:37:59.546Z,30.23
2017-11-06T07:40:27.817Z,29.52
2017-11-06T07:42:56.097Z,30.35
2017-11-06T07:45:24.372Z,36.05
2017-11-06T07:47:52.732Z,32.53
2017-11-06T07:50:20.201Z,34.33
2017-11-06T07:52:47.710Z,31.92
2017-11-06T07:55:15.184Z,34.17
2017-11-06T07:57:42.661Z,32.58
2017-11-06T08:00:10.155Z,33.25
2017-11-06T08:02:38.391Z,30.35
2017-11-06T08:05:05.880Z,31.37
2017-11-06T08:07:34.138Z,34.60
2017-11-06T08:10:01.600Z,32.55
2017-11-06T08:12:29.107Z,28.58
2017-11-06T08:14:56.560Z,32.60
2017-11-06T08:17:24.067Z,32.92
2017-11-06T08:19:51.552Z,37.47
2017-11-06T08:22:19.788Z,34.00
2017-11-06T08:24:47.299Z,36.13
2017-11-06T08:27:14.791Z,36.58
2017-11-06T08:29:42.286Z,29.00
2017-11-06T08:32:09.764Z,30.65
2017-11-06T08:34:38.036Z,34.92
2017-11-06T08:37:06.280Z,38.10
2017-11-06T08:39:33.772Z,30.37
2017-11-06T08:42:02.055Z,38.92
2017-11-06T08:44:30.337Z,35.67
2017-11-06T08:46:58.558Z,33.65
2017-11-06T08:49:26.049Z,39.63
2017-11-06T08:51:53.536Z,34.80
2017-11-06T08:54:21.043Z,35.10
2017-11-06T08:56:48.542Z,35.25
2017-11-06T08:59:16.813Z,30.20
2017-11-06T09:01:45.077Z,41.97
2017-11-06T09:04:12.567Z,31.65
2017-11-06T09:06:40.312Z,26.92
2017-11-06T09:09:08.556Z,27.15
2017-11-06T09:11:37.920Z,31.37
2017-11-06T09:19:25.194Z,29.05
2017-11-06T09:21:56.537Z,34.53
2017-11-06T09:24:29.491Z,30.02
2017-11-06T09:27:02.763Z,31.58
2017-11-06T09:29:30.278Z,30.83
2017-11-06T09:31:57.777Z,31.73
2017-11-06T09:34:25.251Z,34.42
2017-11-06T09:36:52.760Z,33.97
2017-11-06T09:39:20.254Z,29.98
2017-11-06T09:41:47.761Z,41.30
2017-11-06T09:44:15.281Z,28.60
2017-11-06T09:46:42.794Z,30.55
2017-11-06T09:49:10.315Z,40.90
2017-11-06T09:51:38.546Z,34.20
2017-11-06T09:54:06.049Z,36.28
2017-11-06T09:56:34.276Z,31.52
2017-11-06T09:59:01.789Z,35.42
2017-11-06T10:01:30.030Z,31.27
2017-11-06T10:03:57.607Z,35.75
2017-11-06T10:06:25.077Z,32.95
2017-11-06T10:08:53.356Z,24.70
2017-11-06T10:11:21.917Z,30.50
2017-11-06T10:13:49.387Z,30.92
2017-11-06T10:16:16.898Z,22.02
2017-11-06T10:18:44.364Z,24.42
2017-11-06T10:21:11.868Z,22.62
2017-11-06T10:23:39.333Z,27.48
2017-11-06T10:26:08.236Z,25.17
2017-11-06T10:28:36.492Z,19.67
2017-11-06T10:31:03.973Z,21.55
2017-11-06T10:33:31.861Z,23.25
2017-11-06T10:35:59.332Z,19.45
2017-11-06T10:38:26.834Z,23.25
2017-11-06T10:40:55.087Z,19.87
2017-11-06T10:43:22.587Z,22.65
2017-11-06T10:45:50.083Z,23.77
2017-11-06T10:48:17.576Z,18.50
2017-11-06T10:50:45.044Z,16.85
2017-11-06T10:53:12.543Z,15.30
2017-11-06T10:55:40.037Z,21.05
2017-11-06T10:58:07.536Z,21.60
2017-11-06T11:00:35.776Z,18.98
2017-11-06T11:03:03.286Z,17.00
2017-11-06T11:05:30.731Z,18.42
2017-11-06T11:07:58.247Z,18.05
2017-11-06T11:10:25.736Z,27.17
2017-11-06T11:12:53.971Z,13.50
2017-11-06T11:15:21.457Z,17.83
2017-11-06T11:17:48.952Z,16.75
2017-11-06T11:20:16.445Z,17.15
2017-11-06T11:22:43.924Z,15.35
2017-11-06T11:25:11.407Z,17.98
2017-11-06T11:27:39.702Z,15.63
2017-11-06T11:30:07.968Z,15.98
2017-11-06T11:32:36.222Z,18.27
2017-11-06T11:35:03.707Z,19.58
2017-11-06T11:37:31.978Z,14.15
2017-11-06T11:40:00.232Z,18.17
2017-11-06T11:42:27.704Z,13.80
2017-11-06T11:44:55.203Z,14.15
2017-11-06T11:47:22.689Z,15.82
2017-11-06T11:49:50.179Z,13.55
2017-11-06T11:52:17.712Z,13.45
2017-11-06T11:54:45.228Z,13.85
2017-11-06T11:57:12.745Z,21.25
2017-11-06T11:59:40.223Z,17.35
2017-11-06T12:02:08.525Z,17.85
2017-11-06T12:04:36.019Z,18.83
2017-11-06T12:07:04.279Z,20.77
2017-11-06T12:09:31.755Z,26.42
2017-11-06T12:11:59.239Z,18.90
2017-11-06T12:14:26.730Z,22.08
2017-11-06T12:16:54.231Z,15.90
2017-11-06T12:19:21.688Z,18.67
2017-11-06T12:21:49.188Z,20.52
2017-11-06T12:24:17.419Z,16.65
2017-11-06T12:26:44.930Z,20.62
2017-11-06T12:29:13.175Z,24.00
2017-11-06T12:31:40.665Z,21.15
2017-11-06T12:34:08.918Z,18.20
2017-11-06T12:36:36.417Z,19.58
2017-11-06T12:39:03.917Z,18.05
2017-11-06T12:41:31.384Z,21.95
2017-11-06T12:43:58.877Z,18.98
2017-11-06T12:46:27.110Z,14.98
2017-11-06T12:48:54.629Z,21.00
2017-11-06T12:51:22.091Z,16.58
2017-11-06T12:53:49.591Z,16.12
2017-11-06T12:56:17.074Z,17.05
2017-11-06T12:58:45.347Z,16.30
2017-11-06T13:01:12.827Z,18.05
2017-11-06T13:03:41.056Z,12.93
2017-11-06T13:06:08.568Z,14.45
2017-11-06T13:08:36.035Z,17.12
2017-11-06T13:11:03.487Z,20.27
2017-11-06T13:13:31.005Z,15.88
2017-11-06T13:19:02.884Z,17.95
2017-11-06T13:21:31.154Z,13.65
2017-11-06T13:23:59.433Z,11.38
2017-11-06T13:26:27.687Z,10.60
2017-11-06T13:28:55.234Z,12.32
2017-11-06T13:31:22.696Z,9.38
2017-11-06T13:33:50.175Z,13.15
2017-11-06T13:36:17.683Z,11.25
2017-11-06T13:38:45.162Z,14.57
2017-11-06T13:41:12.668Z,19.58
2017-11-06T13:43:40.940Z,10.82
2017-11-06T13:46:08.422Z,10.75
2017-11-06T13:48:35.919Z,12.90
2017-11-06T13:51:03.376Z,15.57
2017-11-06T13:53:30.863Z,8.65
2017-11-06T13:55:58.340Z,11.10
2017-11-06T13:58:26.635Z,12.85
2017-11-06T14:00:54.104Z,18.75
2017-11-06T14:03:21.564Z,9.95
2017-11-06T14:05:49.071Z,12.98
2017-11-06T14:08:16.551Z,36.63
2017-11-06T14:10:44.812Z,13.25
2017-11-06T14:13:13.047Z,30.52
2017-11-06T14:15:40.567Z,13.35
2017-11-06T14:18:08.063Z,10.45
2017-11-06T14:20:35.549Z,19.17
2017-11-06T14:23:03.051Z,29.10
2017-11-06T14:25:30.523Z,18.35
2017-11-06T14:27:58.023Z,15.68
2017-11-06T14:30:25.496Z,17.60
2017-11-06T14:32:52.969Z,13.60
2017-11-06T14:35:21.223Z,13.52
2017-11-06T14:37:48.700Z,13.30
2017-11-06T14:40:16.976Z,21.70
2017-11-06T14:42:45.222Z,13.88
2017-11-06T14:45:12.747Z,12.25
2017-11-06T14:47:40.239Z,12.35
2017-11-06T14:50:07.704Z,16.17
2017-11-06T14:52:35.222Z,12.95
2017-11-06T14:55:02.704Z,14.10
2017-11-06T14:57:30.195Z,13.62
2017-11-06T14:59:57.679Z,14.07
2017-11-06T15:02:25.143Z,10.43
2017-11-06T15:04:52.656Z,11.07
2017-11-06T15:07:20.879Z,17.92
2017-11-06T15:09:48.386Z,13.30
2017-11-06T15:12:15.859Z,9.63
2017-11-06T15:14:43.344Z,12.63
2017-11-06T15:17:11.602Z,11.75
2017-11-06T15:19:39.855Z,11.38
2017-11-06T15:22:08.897Z,12.10
2017-11-06T15:24:37.128Z,16.20
2017-11-06T15:27:04.620Z,12.60
2017-11-06T15:29:32.879Z,12.95
2017-11-06T15:32:00.368Z,11.68
2017-11-06T15:34:27.860Z,13.50
2017-11-06T15:36:55.364Z,20.95
2017-11-06T15:39:22.862Z,10.68
2017-11-06T15:41:50.367Z,17.67
2017-11-06T15:44:19.372Z,10.95
2017-11-06T15:46:46.844Z,12.15
2017-11-06T15:49:15.114Z,13.57
2017-11-06T15:51:43.348Z,13.95
2017-11-06T15:54:10.846Z,12.10
2017-11-06T15:56:38.307Z,12.30
2017-11-06T15:59:06.536Z,12.07
2017-11-06T16:01:34.026Z,15.73
2017-11-06T16:04:01.490Z,9.98
2017-11-06T16:06:28.989Z,10.82
2017-11-06T16:08:56.481Z,14.75
2017-11-06T16:11:24.747Z,15.77
2017-11-06T16:13:52.210Z,11.05
2017-11-06T16:16:19.700Z,7.62
2017-11-06T16:18:54.861Z,12.52
2017-11-06T16:21:23.105Z,12.35
2017-11-06T16:23:50.611Z,9.68
2017-11-06T16:26:18.094Z,16.20
2017-11-06T16:28:45.565Z,11.23
2017-11-06T16:31:13.074Z,12.32
2017-11-06T16:33:41.332Z,24.70
2017-11-06T16:36:08.832Z,8.85
2017-11-06T16:38:36.402Z,16.23
2017-11-06T16:41:03.900Z,11.82
2017-11-06T16:43:31.470Z,11.70
2017-11-06T16:45:59.772Z,13.93
2017-11-06T16:48:27.308Z,11.68
2017-11-06T16:50:54.770Z,14.45
2017-11-06T16:53:23.052Z,25.98
2017-11-06T16:55:51.321Z,14.65
2017-11-06T16:58:18.794Z,18.80
2017-11-06T17:00:47.069Z,13.38
2017-11-06T17:03:15.316Z,9.90
2017-11-06T17:05:42.835Z,16.77
2017-11-06T17:08:10.329Z,12.98
2017-11-06T17:10:37.815Z,17.08
2017-11-06T17:13:06.096Z,11.98
2017-11-06T17:15:34.345Z,15.30
2017-11-06T17:18:01.835Z,13.20
2017-11-06T17:20:30.091Z,11.02
2017-11-06T17:22:57.579Z,16.45
2017-11-06T17:25:25.096Z,17.73
2017-11-06T17:27:52.571Z,15.55
2017-11-06T17:30:20.064Z,14.18
2017-11-06T17:32:47.554Z,14.82
2017-11-06T17:35:15.061Z,19.37
2017-11-06T17:37:43.293Z,12.80
2017-11-06T17:40:10.804Z,11.25
2017-11-06T17:42:39.042Z,17.67
2017-11-06T17:45:06.544Z,16.45
2017-11-06T17:47:34.021Z,12.45
2017-11-06T17:50:01.529Z,16.55
2017-11-06T17:52:28.993Z,12.05
2017-11-06T17:54:57.275Z,10.98
2017-11-06T17:57:25.521Z,10.00
2017-11-06T17:59:52.996Z,14.77
2017-11-06T18:02:20.528Z,13.65
2017-11-06T18:04:47.990Z,22.25
2017-11-06T18:07:15.476Z,15.82
2017-11-06T18:09:42.971Z,16.45
2017-11-06T18:12:10.481Z,15.68
2017-11-06T18:14:37.984Z,22.00
2017-11-06T18:17:05.480Z,10.50
2017-11-06T18:19:33.019Z,20.48
2017-11-06T18:22:00.496Z,15.80
2017-11-06T18:24:27.958Z,12.88
2017-11-06T18:26:55.539Z,16.55
2017-11-06T18:29:23.063Z,12.90
2017-11-06T18:31:50.586Z,13.23
2017-11-06T18:34:18.833Z,14.25
2017-11-06T18:36:46.344Z,12.93
2017-11-06T18:39:13.845Z,12.45
2017-11-06T18:41:41.340Z,8.63
2017-11-06T18:44:09.616Z,13.65
2017-11-06T18:46:37.852Z,10.75
2017-11-06T18:49:05.351Z,14.25
2017-11-06T18:51:33.673Z,15.15
2017-11-06T18:54:01.623Z,19.23
2017-11-06T18:56:29.115Z,11.02
2017-11-06T18:58:56.610Z,19.25
2017-11-06T19:01:24.873Z,13.85
2017-11-06T19:03:52.367Z,14.75
2017-11-06T19:06:19.863Z,11.20
2017-11-06T19:08:47.349Z,18.35
2017-11-06T19:11:14.850Z,17.02
2017-11-06T19:13:42.343Z,14.02
2017-11-06T19:16:09.803Z,13.05
2017-11-06T19:18:37.303Z,16.10
2017-11-06T19:21:05.536Z,17.37
2017-11-06T19:23:33.061Z,11.70
2017-11-06T19:26:00.541Z,21.17
2017-11-06T19:28:28.033Z,14.32
2017-11-06T19:30:55.540Z,18.92
2017-11-06T19:33:23.010Z,11.20
2017-11-06T19:35:50.484Z,27.08
2017-11-06T19:38:17.999Z,15.07
2017-11-06T19:40:45.523Z,16.00
2017-11-06T19:43:13.004Z,14.18
2017-11-06T19:45:41.265Z,10.00
2017-11-06T19:48:08.759Z,14.65
2017-11-06T19:50:36.254Z,11.98
2017-11-06T19:53:03.773Z,12.73
2017-11-06T19:55:31.253Z,16.12
2017-11-06T19:57:58.759Z,14.25
2017-11-06T20:00:26.223Z,16.77
2017-11-06T20:02:54.495Z,14.40
2017-11-06T20:05:22.763Z,13.82
2017-11-06T20:07:50.247Z,10.32
2017-11-06T20:10:18.534Z,10.63
2017-11-06T20:12:46.789Z,11.57
2017-11-06T20:15:14.320Z,12.05
2017-11-06T20:17:41.793Z,11.05
2017-11-06T20:20:09.296Z,13.88
2017-11-06T20:22:36.785Z,13.80
2017-11-06T20:25:04.264Z,10.52
2017-11-06T20:27:31.779Z,13.73
2017-11-06T20:29:59.273Z,14.65
2017-11-06T20:32:26.787Z,19.83
2017-11-06T20:34:54.266Z,9.65
2017-11-06T20:37:21.805Z,7.93
2017-11-06T20:39:49.389Z,10.32
2017-11-06T20:42:16.840Z,22.25
2017-11-06T20:44:44.340Z,19.67
2017-11-06T20:47:11.823Z,13.82
2017-11-06T20:49:40.110Z,13.32
2017-11-06T20:52:08.340Z,12.88
2017-11-06T20:54:35.879Z,11.77
2017-11-06T20:57:03.374Z,9.55
2017-11-06T20:59:30.854Z,11.55
2017-11-06T21:01:59.125Z,26.17
2017-11-06T21:04:27.359Z,19.17
2017-11-06T21:06:54.847Z,15.70
2017-11-06T21:09:22.320Z,13.48
2017-11-06T21:11:50.593Z,16.77
2017-11-06T21:14:18.893Z,9.18
2017-11-06T21:16:46.375Z,12.95
2017-11-06T21:19:13.897Z,13.93
2017-11-06T21:21:42.157Z,13.30
2017-11-06T21:24:09.644Z,15.32
2017-11-06T21:26:37.940Z,13.40
2017-11-06T21:29:05.424Z,19.48
2017-11-06T21:31:32.897Z,15.40
2017-11-06T21:34:00.392Z,13.07
2017-11-06T21:36:28.623Z,13.65
2017-11-06T21:38:56.160Z,18.15
2017-11-06T21:41:23.631Z,14.15
2017-11-06T21:43:51.115Z,24.75
2017-11-06T21:46:18.607Z,18.12
2017-11-06T21:48:46.070Z,20.15
2017-11-06T21:51:13.602Z,16.37
2017-11-06T21:53:41.076Z,15.55
2017-11-06T21:56:09.308Z,14.10
2017-11-06T21:58:36.807Z,18.25
2017-11-06T22:01:05.054Z,16.95
2017-11-06T22:03:32.560Z,18.55
2017-11-06T22:06:00.032Z,21.52
2017-11-06T22:08:27.506Z,12.82
2017-11-06T22:10:55.021Z,20.15
2017-11-06T22:13:23.263Z,15.82
2017-11-06T22:15:50.730Z,19.80
2017-11-06T22:18:18.232Z,15.38
2017-11-06T22:20:45.729Z,20.95
2017-11-06T22:23:13.214Z,17.12
2017-11-06T22:25:40.735Z,24.95
2017-11-06T22:28:08.242Z,18.25
2017-11-06T22:30:36.471Z,18.65
2017-11-06T22:33:03.952Z,18.48
2017-11-06T22:35:31.479Z,26.23
2017-11-06T22:37:58.955Z,24.75
2017-11-06T22:40:26.440Z,22.90
2017-11-06T22:42:53.952Z,35.65
2017-11-06T22:45:21.463Z,25.75
2017-11-06T22:47:49.761Z,27.17
2017-11-06T22:50:18.000Z,23.95
2017-11-06T22:52:45.495Z,23.10
2017-11-06T22:55:13.739Z,22.00
2017-11-06T22:57:41.247Z,33.47
2017-11-06T23:00:08.718Z,20.83
2017-11-06T23:02:36.179Z,22.17
2017-11-06T23:05:03.673Z,21.05
2017-11-06T23:07:31.147Z,23.80
2017-11-06T23:09:59.411Z,28.95
2017-11-06T23:12:26.927Z,25.73
2017-11-06T23:14:54.394Z,24.87
2017-11-06T23:17:21.890Z,27.58
2017-11-06T23:19:49.351Z,28.60
2017-11-06T23:22:16.857Z,30.05
2017-11-06T23:24:44.334Z,39.65
2017-11-06T23:27:11.799Z,25.80
2017-11-06T23:29:39.306Z,23.62
2017-11-06T23:32:07.535Z,22.58
2017-11-06T23:34:35.046Z,23.85
2017-11-06T23:37:04.144Z,28.38
2017-11-06T23:39:31.615Z,19.10
2017-11-06T23:41:59.108Z,22.02
2017-11-06T23:44:26.599Z,21.30
2017-11-06T23:46:54.104Z,20.45
2017-11-06T23:49:21.612Z,19.35
2017-11-06T23:51:49.074Z,21.15
2017-11-06T23:54:18.172Z,30.45
2017-11-06T23:56:46.421Z,21.48
2017-11-06T23:59:13.897Z,23.08
